Time,TemperatureF,DewpointF,PressureIn,WindDirection,WindDirectionDegrees,WindSpeedMPH,WindSpeedGustMPH,Humidity,HourlyPrecipIn,Conditions,Clouds,dailyrainin,SoftwareType,DateUTC
2013-02-27 00:08:00,30.8,29.0,30.17,East,81,1.0,2.0,91,0.00,,,0.00,weatherlink.com 1.10,2013-02-27 05:08:00,
2013-02-27 00:23:00,30.9,29.0,30.18,East,94,1.0,2.0,91,0.00,,,0.00,weatherlink.com 1.10,2013-02-27 05:23:00,
2013-02-27 00:38:00,31.0,29.0,30.17,East,81,1.0,1.0,90,0.00,,,0.00,weatherlink.com 1.10,2013-02-27 05:38:00,
2013-02-27 00:53:00,31.0,29.0,30.16,East,84,1.0,2.0,90,0.00,,,0.00,weatherlink.com 1.10,2013-02-27 05:53:00,
2013-02-27 01:08:00,31.1,29.0,30.16,East,79,2.0,2.0,90,0.00,,,0.00,weatherlink.com 1.10,2013-02-27 06:08:00,
2013-02-27 01:23:00,31.2,29.0,30.15,ESE,103,1.0,2.0,90,0.00,,,0.00,weatherlink.com 1.10,2013-02-27 06:23:00,
2013-02-27 01:41:00,31.3,29.0,30.15,East,96,2.0,2.0,90,0.00,,,0.00,weatherlink.com 1.10,2013-02-27 06:41:00,
2013-02-27 01:53:00,31.4,29.0,30.14,East,93,2.0,2.0,90,0.00,,,0.00,weatherlink.com 1.10,2013-02-27 06:53:00,
2013-02-27 02:08:00,31.5,29.0,30.12,ENE,71,2.0,3.0,90,0.00,,,0.00,weatherlink.com 1.10,2013-02-27 07:08:00,
2013-02-27 02:23:00,31.6,29.0,30.12,SE,146,2.0,4.0,90,0.00,,,0.00,weatherlink.com 1.10,2013-02-27 07:23:00,
2013-02-27 02:38:00,31.6,29.0,30.12,East,99,3.0,4.0,90,0.00,,,0.00,weatherlink.com 1.10,2013-02-27 07:38:00,
2013-02-27 02:53:00,31.7,29.0,30.12,East,95,2.0,4.0,89,0.00,,,0.00,weatherlink.com 1.10,2013-02-27 07:53:00,
2013-02-27 03:08:00,31.8,29.0,30.12,ENE,72,2.0,2.0,89,0.00,,,0.00,weatherlink.com 1.10,2013-02-27 08:08:00,
2013-02-27 03:23:00,32.0,29.0,30.12,East,92,2.0,3.0,89,0.00,,,0.00,weatherlink.com 1.10,2013-02-27 08:23:00,
2013-02-27 03:38:00,32.2,29.0,30.11,East,86,2.0,3.0,88,0.00,,,0.00,weatherlink.com 1.10,2013-02-27 08:38:00,
2013-02-27 03:53:00,32.5,29.0,30.12,East,96,1.0,3.0,88,0.00,,,0.00,weatherlink.com 1.10,2013-02-27 08:53:00,
2013-02-27 04:08:00,32.5,30.0,30.11,ESE,106,2.0,3.0,89,0.00,,,0.00,weatherlink.com 1.10,2013-02-27 09:08:00,
2013-02-27 04:23:00,32.0,30.0,30.10,ENE,75,2.0,3.0,93,0.00,,,0.00,weatherlink.com 1.10,2013-02-27 09:23:00,
2013-02-27 04:38:00,31.4,30.0,30.06,East,86,3.0,4.0,95,0.00,,,0.00,weatherlink.com 1.10,2013-02-27 09:38:00,
2013-02-27 04:54:00,31.2,30.0,30.08,ESE,111,0.0,2.0,96,0.00,,,0.00,weatherlink.com 1.10,2013-02-27 09:54:00,
2013-02-27 05:08:00,31.2,30.0,30.07,SE,142,1.0,2.0,96,0.00,,,0.00,weatherlink.com 1.10,2013-02-27 10:08:00,
2013-02-27 05:23:00,31.3,31.0,30.06,East,100,2.0,2.0,97,0.00,,,0.00,weatherlink.com 1.10,2013-02-27 10:23:00,
2013-02-27 05:38:00,31.5,31.0,30.05,East,91,2.0,2.0,97,0.00,,,0.00,weatherlink.com 1.10,2013-02-27 10:38:00,
2013-02-27 05:53:00,31.7,31.0,30.05,SE,139,1.0,2.0,98,0.00,,,0.00,weatherlink.com 1.10,2013-02-27 10:53:00,
2013-02-27 06:08:00,31.9,31.0,30.04,ENE,72,0.0,2.0,98,0.00,,,0.00,weatherlink.com 1.10,2013-02-27 11:08:00,
2013-02-27 06:23:00,32.0,32.0,30.03,ESE,109,1.0,3.0,98,0.00,,,0.00,weatherlink.com 1.10,2013-02-27 11:23:00,
2013-02-27 06:38:00,32.0,32.0,30.02,ESE,122,3.0,4.0,98,0.00,,,0.00,weatherlink.com 1.10,2013-02-27 11:38:00,
2013-02-27 06:53:00,31.9,31.0,30.02,East,98,3.0,4.0,98,0.00,,,0.00,weatherlink.com 1.10,2013-02-27 11:53:00,
2013-02-27 07:08:00,31.9,31.0,30.02,East,93,2.0,3.0,98,0.00,,,0.00,weatherlink.com 1.10,2013-02-27 12:08:00,
2013-02-27 07:23:00,32.0,32.0,30.01,East,96,2.0,4.0,98,0.00,,,0.00,weatherlink.com 1.10,2013-02-27 12:23:00,
2013-02-27 07:38:00,32.0,32.0,30.00,East,94,2.0,3.0,98,0.00,,,0.00,weatherlink.com 1.10,2013-02-27 12:38:00,
2013-02-27 07:53:00,32.1,32.0,29.99,East,101,2.0,4.0,98,0.00,,,0.00,weatherlink.com 1.10,2013-02-27 12:53:00,
2013-02-27 08:09:00,32.1,32.0,29.99,East,82,2.0,4.0,98,0.00,,,0.00,weatherlink.com 1.10,2013-02-27 13:09:00,
2013-02-27 08:24:00,32.2,32.0,29.98,ESE,113,2.0,5.0,98,0.00,,,0.00,weatherlink.com 1.10,2013-02-27 13:24:00,
2013-02-27 08:39:00,32.5,32.0,29.97,East,93,3.0,6.0,98,0.00,,,0.00,weatherlink.com 1.10,2013-02-27 13:39:00,
2013-02-27 08:54:00,32.6,32.0,29.96,ENE,65,2.0,5.0,98,0.00,,,0.00,weatherlink.com 1.10,2013-02-27 13:54:00,
2013-02-27 09:09:00,32.7,32.0,29.96,East,84,3.0,7.0,98,0.00,,,0.00,weatherlink.com 1.10,2013-02-27 14:09:00,
2013-02-27 09:39:00,33.0,33.0,29.93,ESE,103,2.0,10.0,98,0.00,,,0.00,weatherlink.com 1.10,2013-02-27 14:39:00,
2013-02-27 09:54:00,33.1,33.0,29.93,East,95,3.0,8.0,98,0.00,,,0.00,weatherlink.com 1.10,2013-02-27 14:54:00,
2013-02-27 10:09:00,33.2,33.0,29.92,SE,131,3.0,8.0,98,0.00,,,0.00,weatherlink.com 1.10,2013-02-27 15:09:00,
2013-02-27 10:24:00,33.2,33.0,29.92,ESE,122,6.0,7.0,98,0.00,,,0.00,weatherlink.com 1.10,2013-02-27 15:24:00,
2013-02-27 10:39:00,33.3,33.0,29.90,East,82,4.0,6.0,98,0.00,,,0.00,weatherlink.com 1.10,2013-02-27 15:39:00,
2013-02-27 10:54:00,33.7,33.0,29.89,ESE,113,4.0,6.0,98,0.00,,,0.00,weatherlink.com 1.10,2013-02-27 15:54:00,
2013-02-27 11:09:00,34.4,34.0,29.89,ESE,106,4.0,8.0,99,0.00,,,0.00,weatherlink.com 1.10,2013-02-27 16:09:00,
2013-02-27 11:24:00,34.9,35.0,29.88,ESE,117,11.0,11.0,99,0.00,,,0.00,weatherlink.com 1.10,2013-02-27 16:24:00,
2013-02-27 11:39:00,35.4,35.0,29.87,East,79,4.0,7.0,98,0.03,,,0.03,weatherlink.com 1.10,2013-02-27 16:39:00,
2013-02-27 12:09:00,35.5,35.0,29.86,East,82,4.0,8.0,98,0.09,,,0.09,weatherlink.com 1.10,2013-02-27 17:09:00,
2013-02-27 12:24:00,35.6,35.0,29.85,ESE,119,3.0,9.0,98,0.12,,,0.12,weatherlink.com 1.10,2013-02-27 17:24:00,
2013-02-27 12:39:00,35.6,35.0,29.84,ESE,123,5.0,8.0,97,0.11,,,0.14,weatherlink.com 1.10,2013-02-27 17:39:00,
2013-02-27 12:54:00,35.5,35.0,29.83,ENE,70,5.0,9.0,97,0.11,,,0.17,weatherlink.com 1.10,2013-02-27 17:54:00,
2013-02-27 13:09:00,35.2,35.0,29.82,ESE,110,4.0,8.0,97,0.11,,,0.20,weatherlink.com 1.10,2013-02-27 18:09:00,
2013-02-27 13:24:00,34.6,34.0,29.82,East,96,3.0,8.0,97,0.10,,,0.22,weatherlink.com 1.10,2013-02-27 18:24:00,
2013-02-27 13:39:00,34.0,33.0,29.80,ESE,115,3.0,7.0,97,0.10,,,0.24,weatherlink.com 1.10,2013-02-27 18:39:00,
2013-02-27 13:54:00,33.6,33.0,29.81,SW,228,5.0,9.0,97,0.07,,,0.25,weatherlink.com 1.10,2013-02-27 18:54:00,
2013-02-27 14:09:00,32.8,32.0,29.80,ENE,64,5.0,7.0,97,0.05,,,0.25,weatherlink.com 1.10,2013-02-27 19:09:00,
2013-02-27 14:24:00,32.4,32.0,29.80,ESE,113,2.0,6.0,97,0.03,,,0.25,weatherlink.com 1.10,2013-02-27 19:24:00,
2013-02-27 14:39:00,32.1,32.0,29.81,East,82,3.0,5.0,98,0.01,,,0.25,weatherlink.com 1.10,2013-02-27 19:39:00,
2013-02-27 14:54:00,32.2,32.0,29.80,ENE,77,2.0,6.0,98,0.00,,,0.25,weatherlink.com 1.10,2013-02-27 19:54:00,
2013-02-27 15:09:00,32.1,32.0,29.80,East,86,2.0,6.0,98,0.00,,,0.25,weatherlink.com 1.10,2013-02-27 20:09:00,
2013-02-27 15:24:00,32.0,32.0,29.79,ESE,117,2.0,7.0,98,0.01,,,0.26,weatherlink.com 1.10,2013-02-27 20:24:00,
2013-02-27 15:39:00,31.9,31.0,29.79,ENE,77,3.0,4.0,98,0.01,,,0.26,weatherlink.com 1.10,2013-02-27 20:39:00,
2013-02-27 15:54:00,31.9,31.0,29.79,East,90,0.0,6.0,98,0.01,,,0.26,weatherlink.com 1.10,2013-02-27 20:54:00,
2013-02-27 16:09:00,31.8,31.0,29.78,East,100,2.0,5.0,98,0.01,,,0.26,weatherlink.com 1.10,2013-02-27 21:09:00,
2013-02-27 16:25:00,31.7,31.0,29.77,ESE,110,6.0,7.0,98,0.00,,,0.26,weatherlink.com 1.10,2013-02-27 21:25:00,
2013-02-27 16:40:00,31.6,31.0,29.75,East,84,3.0,8.0,98,0.00,,,0.26,weatherlink.com 1.10,2013-02-27 21:40:00,
2013-02-27 16:55:00,31.6,31.0,29.75,East,97,4.0,9.0,98,0.00,,,0.26,weatherlink.com 1.10,2013-02-27 21:55:00,
2013-02-27 17:10:00,31.5,31.0,29.75,ENE,63,4.0,5.0,98,0.00,,,0.26,weatherlink.com 1.10,2013-02-27 22:10:00,
2013-02-27 17:25:00,31.4,31.0,29.73,ENE,58,3.0,7.0,98,0.00,,,0.26,weatherlink.com 1.10,2013-02-27 22:25:00,
2013-02-27 17:40:00,31.3,31.0,29.73,ESE,103,3.0,3.0,99,0.00,,,0.26,weatherlink.com 1.10,2013-02-27 22:40:00,
2013-02-27 17:55:00,31.3,31.0,29.73,East,85,2.0,5.0,99,0.00,,,0.26,weatherlink.com 1.10,2013-02-27 22:55:00,
2013-02-27 18:10:00,31.2,31.0,29.73,East,79,1.0,4.0,99,0.00,,,0.26,weatherlink.com 1.10,2013-02-27 23:10:00,
2013-02-27 18:25:00,31.2,31.0,29.73,East,79,1.0,6.0,99,0.00,,,0.26,weatherlink.com 1.10,2013-02-27 23:25:00,
2013-02-27 18:40:00,31.1,31.0,29.72,ENE,58,2.0,5.0,99,0.00,,,0.26,weatherlink.com 1.10,2013-02-27 23:40:00,
2013-02-27 18:55:00,31.0,31.0,29.72,ENE,67,2.0,3.0,99,0.00,,,0.26,weatherlink.com 1.10,2013-02-27 23:55:00,
2013-02-27 19:10:00,31.0,31.0,29.71,South,176,2.0,5.0,99,0.00,,,0.00,weatherlink.com 1.10,2013-02-28 00:10:00,
2013-02-27 19:25:00,30.9,31.0,29.70,ENE,77,1.0,3.0,99,0.00,,,0.00,weatherlink.com 1.10,2013-02-28 00:25:00,
2013-02-27 19:40:00,30.8,31.0,29.69,East,86,2.0,4.0,99,0.00,,,0.00,weatherlink.com 1.10,2013-02-28 00:40:00,
2013-02-27 19:55:00,30.7,31.0,29.68,East,79,2.0,6.0,99,0.00,,,0.00,weatherlink.com 1.10,2013-02-28 00:55:00,
2013-02-27 20:10:00,30.7,31.0,29.67,NE,42,1.0,4.0,99,0.00,,,0.00,weatherlink.com 1.10,2013-02-28 01:10:00,
2013-02-27 20:25:00,30.7,31.0,29.67,East,96,1.0,6.0,99,0.00,,,0.00,weatherlink.com 1.10,2013-02-28 01:25:00,
2013-02-27 20:40:00,30.7,31.0,29.67,ENE,60,2.0,4.0,99,0.00,,,0.00,weatherlink.com 1.10,2013-02-28 01:40:00,
2013-02-27 20:55:00,30.8,31.0,29.67,NW,321,2.0,3.0,99,0.00,,,0.00,weatherlink.com 1.10,2013-02-28 01:55:00,
2013-02-27 21:10:00,30.7,31.0,29.67,ESE,102,1.0,2.0,99,0.00,,,0.00,weatherlink.com 1.10,2013-02-28 02:10:00,
2013-02-27 21:25:00,30.7,31.0,29.66,ESE,105,0.0,2.0,99,0.00,,,0.00,weatherlink.com 1.10,2013-02-28 02:25:00,
2013-02-27 21:40:00,30.6,30.0,29.65,NE,56,1.0,3.0,99,0.00,,,0.00,weatherlink.com 1.10,2013-02-28 02:40:00,
2013-02-27 21:55:00,30.6,30.0,29.64,NNE,19,0.0,3.0,99,0.00,,,0.00,weatherlink.com 1.10,2013-02-28 02:55:00,
2013-02-27 22:10:00,30.5,30.0,29.64,NE,44,1.0,2.0,99,0.00,,,0.00,weatherlink.com 1.10,2013-02-28 03:10:00,
2013-02-27 22:25:00,30.5,30.0,29.63,ENE,63,2.0,2.0,99,0.00,,,0.00,weatherlink.com 1.10,2013-02-28 03:25:00,
2013-02-27 22:40:00,30.5,30.0,29.62,NE,53,2.0,3.0,99,0.00,,,0.00,weatherlink.com 1.10,2013-02-28 03:40:00,
2013-02-27 22:55:00,30.3,30.0,29.62,NE,47,2.0,3.0,99,0.00,,,0.00,weatherlink.com 1.10,2013-02-28 03:55:00,
2013-02-27 23:25:00,29.9,30.0,29.61,ENE,70,1.0,2.0,99,0.00,,,0.00,weatherlink.com 1.10,2013-02-28 04:25:00,
2013-02-27 23:40:00,29.8,30.0,29.60,NE,56,2.0,3.0,99,0.00,,,0.00,weatherlink.com 1.10,2013-02-28 04:40:00,